sensor_id;sensor_type;location;lat;lon;timestamp;temperature;humidity
4103;DHT22;2065;49.790;9.620;2022-11-20T00:01:28;8.10;58.30
4103;DHT22;2065;49.790;9.620;2022-11-20T00:03:57;8.20;58.20
4103;DHT22;2065;49.790;9.620;2022-11-20T00:06:25;8.20;57.90
4103;DHT22;2065;49.790;9.620;2022-11-20T00:08:54;8.20;57.60
4103;DHT22;2065;49.790;9.620;2022-11-20T00:11:23;8.10;57.70
4103;DHT22;2065;49.790;9.620;2022-11-20T00:13:52;8.00;58.20
4103;DHT22;2065;49.790;9.620;2022-11-20T00:16:20;7.70;58.90
4103;DHT22;2065;49.790;9.620;2022-11-20T00:18:49;7.70;59.20
4103;DHT22;2065;49.790;9.620;2022-11-20T00:21:18;7.70;59.00
4103;DHT22;2065;49.790;9.620;2022-11-20T00:23:45;7.70;58.90
4103;DHT22;2065;49.790;9.620;2022-11-20T00:26:14;7.90;58.80
4103;DHT22;2065;49.790;9.620;2022-11-20T00:28:42;7.90;58.50
4103;DHT22;2065;49.790;9.620;2022-11-20T00:31:11;7.90;58.50
4103;DHT22;2065;49.790;9.620;2022-11-20T00:33:38;8.00;58.30
4103;DHT22;2065;49.790;9.620;2022-11-20T00:36:09;8.00;58.10
4103;DHT22;2065;49.790;9.620;2022-11-20T00:38:36;7.80;58.90
4103;DHT22;2065;49.790;9.620;2022-11-20T00:41:05;7.50;58.80
4103;DHT22;2065;49.790;9.620;2022-11-20T00:43:32;7.40;59.30
4103;DHT22;2065;49.790;9.620;2022-11-20T00:46:00;7.30;59.30
4103;DHT22;2065;49.790;9.620;2022-11-20T00:48:28;7.40;59.30
4103;DHT22;2065;49.790;9.620;2022-11-20T00:50:55;7.50;59.00
4103;DHT22;2065;49.790;9.620;2022-11-20T00:53:24;7.50;59.40
4103;DHT22;2065;49.790;9.620;2022-11-20T00:55:55;7.70;59.00
4103;DHT22;2065;49.790;9.620;2022-11-20T00:58:22;7.80;59.20
4103;DHT22;2065;49.790;9.620;2022-11-20T01:00:50;7.70;59.30
4103;DHT22;2065;49.790;9.620;2022-11-20T01:03:17;7.60;59.80
4103;DHT22;2065;49.790;9.620;2022-11-20T01:05:44;7.70;59.20
4103;DHT22;2065;49.790;9.620;2022-11-20T01:08:11;7.70;59.30
4103;DHT22;2065;49.790;9.620;2022-11-20T01:10:40;7.50;59.50
4103;DHT22;2065;49.790;9.620;2022-11-20T01:13:07;7.60;59.60
4103;DHT22;2065;49.790;9.620;2022-11-20T01:15:52;7.40;59.00
4103;DHT22;2065;49.790;9.620;2022-11-20T01:18:19;7.40;59.30
4103;DHT22;2065;49.790;9.620;2022-11-20T01:20:45;7.50;59.50
4103;DHT22;2065;49.790;9.620;2022-11-20T01:23:13;7.40;59.10
4103;DHT22;2065;49.790;9.620;2022-11-20T01:25:41;7.50;59.40
4103;DHT22;2065;49.790;9.620;2022-11-20T01:28:08;7.70;59.40
4103;DHT22;2065;49.790;9.620;2022-11-20T01:30:35;7.70;59.20
4103;DHT22;2065;49.790;9.620;2022-11-20T01:33:02;7.80;59.00
4103;DHT22;2065;49.790;9.620;2022-11-20T01:35:29;7.90;58.70
4103;DHT22;2065;49.790;9.620;2022-11-20T01:37:56;7.80;58.20
4103;DHT22;2065;49.790;9.620;2022-11-20T01:40:23;7.60;58.50
4103;DHT22;2065;49.790;9.620;2022-11-20T01:42:59;7.60;58.80
4103;DHT22;2065;49.790;9.620;2022-11-20T01:46:03;7.80;58.80
4103;DHT22;2065;49.790;9.620;2022-11-20T01:48:35;7.80;58.60
4103;DHT22;2065;49.790;9.620;2022-11-20T01:51:05;7.80;58.80
4103;DHT22;2065;49.790;9.620;2022-11-20T01:53:36;7.70;59.30
4103;DHT22;2065;49.790;9.620;2022-11-20T01:56:06;7.80;59.20
4103;DHT22;2065;49.790;9.620;2022-11-20T01:58:40;7.60;59.40
4103;DHT22;2065;49.790;9.620;2022-11-20T02:01:09;7.50;59.60
4103;DHT22;2065;49.790;9.620;2022-11-20T02:03:36;7.50;59.90
4103;DHT22;2065;49.790;9.620;2022-11-20T02:06:07;7.50;59.80
4103;DHT22;2065;49.790;9.620;2022-11-20T02:08:38;7.40;60.00
4103;DHT22;2065;49.790;9.620;2022-11-20T02:11:05;7.50;59.70
4103;DHT22;2065;49.790;9.620;2022-11-20T02:13:35;7.60;59.20
4103;DHT22;2065;49.790;9.620;2022-11-20T02:16:15;7.50;59.10
4103;DHT22;2065;49.790;9.620;2022-11-20T02:18:43;7.40;59.50
4103;DHT22;2065;49.790;9.620;2022-11-20T02:21:18;7.30;59.60
4103;DHT22;2065;49.790;9.620;2022-11-20T02:24:06;7.20;60.00
4103;DHT22;2065;49.790;9.620;2022-11-20T02:26:38;7.30;60.00
4103;DHT22;2065;49.790;9.620;2022-11-20T02:29:06;7.40;59.80
4103;DHT22;2065;49.790;9.620;2022-11-20T02:31:37;7.50;59.40
4103;DHT22;2065;49.790;9.620;2022-11-20T02:34:05;7.70;59.10
4103;DHT22;2065;49.790;9.620;2022-11-20T02:36:33;7.70;59.00
4103;DHT22;2065;49.790;9.620;2022-11-20T02:39:03;7.70;58.80
4103;DHT22;2065;49.790;9.620;2022-11-20T02:41:31;7.70;58.50
4103;DHT22;2065;49.790;9.620;2022-11-20T02:43:58;7.80;58.40
4103;DHT22;2065;49.790;9.620;2022-11-20T02:46:27;7.80;58.30
4103;DHT22;2065;49.790;9.620;2022-11-20T02:48:54;7.80;58.30
4103;DHT22;2065;49.790;9.620;2022-11-20T02:51:22;7.80;58.20
4103;DHT22;2065;49.790;9.620;2022-11-20T02:53:49;7.80;58.00
4103;DHT22;2065;49.790;9.620;2022-11-20T02:56:17;7.70;58.20
4103;DHT22;2065;49.790;9.620;2022-11-20T02:58:44;7.40;58.90
4103;DHT22;2065;49.790;9.620;2022-11-20T03:01:12;7.30;59.40
4103;DHT22;2065;49.790;9.620;2022-11-20T03:03:39;7.20;59.70
4103;DHT22;2065;49.790;9.620;2022-11-20T03:06:07;7.10;60.10
4103;DHT22;2065;49.790;9.620;2022-11-20T03:08:34;7.30;59.90
4103;DHT22;2065;49.790;9.620;2022-11-20T03:11:06;7.20;60.00
4103;DHT22;2065;49.790;9.620;2022-11-20T03:13:35;7.10;60.30
4103;DHT22;2065;49.790;9.620;2022-11-20T03:16:11;7.10;60.20
4103;DHT22;2065;49.790;9.620;2022-11-20T03:18:39;7.30;60.10
4103;DHT22;2065;49.790;9.620;2022-11-20T03:21:06;7.30;59.70
4103;DHT22;2065;49.790;9.620;2022-11-20T03:23:34;7.20;60.60
4103;DHT22;2065;49.790;9.620;2022-11-20T03:26:10;7.40;60.10
4103;DHT22;2065;49.790;9.620;2022-11-20T03:28:39;7.50;59.70
4103;DHT22;2065;49.790;9.620;2022-11-20T03:31:07;7.60;59.00
4103;DHT22;2065;49.790;9.620;2022-11-20T03:33:35;7.70;58.70
4103;DHT22;2065;49.790;9.620;2022-11-20T03:36:03;7.70;58.60
4103;DHT22;2065;49.790;9.620;2022-11-20T03:38:30;7.50;59.20
4103;DHT22;2065;49.790;9.620;2022-11-20T03:40:59;7.30;59.60
4103;DHT22;2065;49.790;9.620;2022-11-20T03:43:27;7.20;60.10
4103;DHT22;2065;49.790;9.620;2022-11-20T03:45:56;7.10;60.50
4103;DHT22;2065;49.790;9.620;2022-11-20T03:48:23;7.30;60.60
4103;DHT22;2065;49.790;9.620;2022-11-20T03:50:50;7.40;59.60
4103;DHT22;2065;49.790;9.620;2022-11-20T03:53:18;7.50;59.20
4103;DHT22;2065;49.790;9.620;2022-11-20T03:55:45;7.40;59.60
4103;DHT22;2065;49.790;9.620;2022-11-20T03:58:16;7.30;59.70
4103;DHT22;2065;49.790;9.620;2022-11-20T04:00:43;7.50;59.40
4103;DHT22;2065;49.790;9.620;2022-11-20T04:03:12;7.60;59.10
4103;DHT22;2065;49.790;9.620;2022-11-20T04:05:39;7.60;59.10
4103;DHT22;2065;49.790;9.620;2022-11-20T04:08:05;7.60;59.00
4103;DHT22;2065;49.790;9.620;2022-11-20T04:10:32;7.60;59.10
4103;DHT22;2065;49.790;9.620;2022-11-20T04:12:59;7.60;59.30
4103;DHT22;2065;49.790;9.620;2022-11-20T04:15:27;7.70;59.00
4103;DHT22;2065;49.790;9.620;2022-11-20T04:17:54;7.70;59.00
4103;DHT22;2065;49.790;9.620;2022-11-20T04:20:22;7.80;58.90
4103;DHT22;2065;49.790;9.620;2022-11-20T04:22:53;7.50;59.10
4103;DHT22;2065;49.790;9.620;2022-11-20T04:25:20;7.50;59.60
4103;DHT22;2065;49.790;9.620;2022-11-20T04:27:47;7.40;59.90
4103;DHT22;2065;49.790;9.620;2022-11-20T04:30:14;7.50;59.60
4103;DHT22;2065;49.790;9.620;2022-11-20T04:32:41;7.20;60.10
4103;DHT22;2065;49.790;9.620;2022-11-20T04:35:08;7.20;60.80
4103;DHT22;2065;49.790;9.620;2022-11-20T04:37:36;7.50;59.80
4103;DHT22;2065;49.790;9.620;2022-11-20T04:40:04;7.50;59.40
4103;DHT22;2065;49.790;9.620;2022-11-20T04:42:31;7.50;59.70
4103;DHT22;2065;49.790;9.620;2022-11-20T04:44:58;7.40;60.10
4103;DHT22;2065;49.790;9.620;2022-11-20T04:47:25;7.30;60.40
4103;DHT22;2065;49.790;9.620;2022-11-20T04:49:52;7.40;60.10
4103;DHT22;2065;49.790;9.620;2022-11-20T04:52:19;7.30;59.90
4103;DHT22;2065;49.790;9.620;2022-11-20T04:54:47;7.20;60.90
4103;DHT22;2065;49.790;9.620;2022-11-20T04:57:15;7.30;60.60
4103;DHT22;2065;49.790;9.620;2022-11-20T04:59:42;7.50;59.80
4103;DHT22;2065;49.790;9.620;2022-11-20T05:02:10;7.50;59.80
4103;DHT22;2065;49.790;9.620;2022-11-20T05:04:37;7.60;59.70
4103;DHT22;2065;49.790;9.620;2022-11-20T05:07:04;7.50;59.90
4103;DHT22;2065;49.790;9.620;2022-11-20T05:09:31;7.60;59.70
4103;DHT22;2065;49.790;9.620;2022-11-20T05:11:59;7.60;59.30
4103;DHT22;2065;49.790;9.620;2022-11-20T05:14:26;7.70;59.00
4103;DHT22;2065;49.790;9.620;2022-11-20T05:16:53;7.40;59.20
4103;DHT22;2065;49.790;9.620;2022-11-20T05:19:20;7.30;59.80
4103;DHT22;2065;49.790;9.620;2022-11-20T05:21:47;7.30;60.10
4103;DHT22;2065;49.790;9.620;2022-11-20T05:24:14;7.40;60.20
4103;DHT22;2065;49.790;9.620;2022-11-20T05:26:41;7.30;60.60
4103;DHT22;2065;49.790;9.620;2022-11-20T05:29:11;7.40;60.20
4103;DHT22;2065;49.790;9.620;2022-11-20T05:31:39;7.40;60.60
4103;DHT22;2065;49.790;9.620;2022-11-20T05:34:06;7.40;60.30
4103;DHT22;2065;49.790;9.620;2022-11-20T05:36:33;7.20;60.40
4103;DHT22;2065;49.790;9.620;2022-11-20T05:39:01;7.30;60.50
4103;DHT22;2065;49.790;9.620;2022-11-20T05:41:28;7.30;60.90
4103;DHT22;2065;49.790;9.620;2022-11-20T05:43:56;7.40;61.20
4103;DHT22;2065;49.790;9.620;2022-11-20T05:46:25;7.40;60.40
4103;DHT22;2065;49.790;9.620;2022-11-20T05:48:52;7.40;60.50
4103;DHT22;2065;49.790;9.620;2022-11-20T05:51:20;7.50;60.50
4103;DHT22;2065;49.790;9.620;2022-11-20T05:53:47;7.60;60.50
4103;DHT22;2065;49.790;9.620;2022-11-20T05:56:16;7.70;60.10
4103;DHT22;2065;49.790;9.620;2022-11-20T05:58:44;7.60;59.80
4103;DHT22;2065;49.790;9.620;2022-11-20T06:01:14;7.70;59.90
4103;DHT22;2065;49.790;9.620;2022-11-20T06:03:43;7.70;59.80
4103;DHT22;2065;49.790;9.620;2022-11-20T06:06:13;7.70;59.80
4103;DHT22;2065;49.790;9.620;2022-11-20T06:08:41;7.80;59.60
4103;DHT22;2065;49.790;9.620;2022-11-20T06:11:10;7.90;59.50
4103;DHT22;2065;49.790;9.620;2022-11-20T06:13:37;7.90;59.40
4103;DHT22;2065;49.790;9.620;2022-11-20T06:16:05;7.90;59.70
4103;DHT22;2065;49.790;9.620;2022-11-20T06:18:32;7.60;60.00
4103;DHT22;2065;49.790;9.620;2022-11-20T06:21:02;7.60;60.40
4103;DHT22;2065;49.790;9.620;2022-11-20T06:23:31;7.60;60.40
4103;DHT22;2065;49.790;9.620;2022-11-20T06:26:01;7.60;60.90
4103;DHT22;2065;49.790;9.620;2022-11-20T06:28:28;7.70;60.30
4103;DHT22;2065;49.790;9.620;2022-11-20T06:30:56;7.70;59.90
4103;DHT22;2065;49.790;9.620;2022-11-20T06:33:23;7.80;59.50
4103;DHT22;2065;49.790;9.620;2022-11-20T06:35:51;7.70;60.00
4103;DHT22;2065;49.790;9.620;2022-11-20T06:38:20;7.80;59.90
4103;DHT22;2065;49.790;9.620;2022-11-20T06:40:47;7.90;59.70
4103;DHT22;2065;49.790;9.620;2022-11-20T06:43:14;7.60;59.90
4103;DHT22;2065;49.790;9.620;2022-11-20T06:45:41;7.60;60.50
4103;DHT22;2065;49.790;9.620;2022-11-20T06:48:08;7.50;60.90
4103;DHT22;2065;49.790;9.620;2022-11-20T06:50:36;7.60;61.20
4103;DHT22;2065;49.790;9.620;2022-11-20T06:53:04;7.60;60.80
4103;DHT22;2065;49.790;9.620;2022-11-20T06:55:32;7.40;61.00
4103;DHT22;2065;49.790;9.620;2022-11-20T06:57:59;7.40;61.30
4103;DHT22;2065;49.790;9.620;2022-11-20T07:00:26;7.30;61.20
4103;DHT22;2065;49.790;9.620;2022-11-20T07:02:53;7.20;61.90
4103;DHT22;2065;49.790;9.620;2022-11-20T07:05:20;7.40;61.60
4103;DHT22;2065;49.790;9.620;2022-11-20T07:07:47;7.60;60.70
4103;DHT22;2065;49.790;9.620;2022-11-20T07:10:14;7.50;60.20
4103;DHT22;2065;49.790;9.620;2022-11-20T07:12:49;7.70;60.20
4103;DHT22;2065;49.790;9.620;2022-11-20T07:15:16;7.80;60.10
4103;DHT22;2065;49.790;9.620;2022-11-20T07:17:43;7.90;60.20
4103;DHT22;2065;49.790;9.620;2022-11-20T07:20:11;8.00;59.70
4103;DHT22;2065;49.790;9.620;2022-11-20T07:22:38;7.70;60.20
4103;DHT22;2065;49.790;9.620;2022-11-20T07:25:05;7.50;61.00
4103;DHT22;2065;49.790;9.620;2022-11-20T07:27:32;7.60;60.80
4103;DHT22;2065;49.790;9.620;2022-11-20T07:30:01;7.70;60.50
4103;DHT22;2065;49.790;9.620;2022-11-20T07:32:28;7.60;60.30
4103;DHT22;2065;49.790;9.620;2022-11-20T07:34:56;7.40;60.80
4103;DHT22;2065;49.790;9.620;2022-11-20T07:37:23;7.30;61.30
4103;DHT22;2065;49.790;9.620;2022-11-20T07:39:49;7.40;61.60
4103;DHT22;2065;49.790;9.620;2022-11-20T07:42:16;7.50;61.20
4103;DHT22;2065;49.790;9.620;2022-11-20T07:44:43;7.70;61.00
4103;DHT22;2065;49.790;9.620;2022-11-20T07:47:12;7.70;60.60
4103;DHT22;2065;49.790;9.620;2022-11-20T07:49:39;7.70;60.80
4103;DHT22;2065;49.790;9.620;2022-11-20T07:52:06;7.80;60.80
4103;DHT22;2065;49.790;9.620;2022-11-20T07:54:33;7.90;60.60
4103;DHT22;2065;49.790;9.620;2022-11-20T07:56:59;7.90;60.20
4103;DHT22;2065;49.790;9.620;2022-11-20T07:59:26;7.80;60.60
4103;DHT22;2065;49.790;9.620;2022-11-20T08:01:53;7.90;60.70
4103;DHT22;2065;49.790;9.620;2022-11-20T08:04:22;8.00;60.20
4103;DHT22;2065;49.790;9.620;2022-11-20T08:06:49;8.00;59.80
4103;DHT22;2065;49.790;9.620;2022-11-20T08:09:18;8.00;60.00
4103;DHT22;2065;49.790;9.620;2022-11-20T08:11:45;7.90;59.70
4103;DHT22;2065;49.790;9.620;2022-11-20T08:14:31;7.90;60.00
4103;DHT22;2065;49.790;9.620;2022-11-20T08:16:58;7.90;60.40
4103;DHT22;2065;49.790;9.620;2022-11-20T08:19:26;8.00;60.30
4103;DHT22;2065;49.790;9.620;2022-11-20T08:21:55;8.10;60.00
4103;DHT22;2065;49.790;9.620;2022-11-20T08:24:22;8.10;59.70
4103;DHT22;2065;49.790;9.620;2022-11-20T08:26:50;8.20;59.80
4103;DHT22;2065;49.790;9.620;2022-11-20T08:29:17;8.10;59.60
4103;DHT22;2065;49.790;9.620;2022-11-20T08:31:44;8.00;59.10
4103;DHT22;2065;49.790;9.620;2022-11-20T08:34:11;7.90;59.90
4103;DHT22;2065;49.790;9.620;2022-11-20T08:36:40;7.90;60.40
4103;DHT22;2065;49.790;9.620;2022-11-20T08:39:07;7.70;60.80
4103;DHT22;2065;49.790;9.620;2022-11-20T08:41:34;7.90;60.80
4103;DHT22;2065;49.790;9.620;2022-11-20T08:44:03;8.00;60.20
4103;DHT22;2065;49.790;9.620;2022-11-20T08:46:33;7.90;59.70
4103;DHT22;2065;49.790;9.620;2022-11-20T08:49:02;7.80;60.60
4103;DHT22;2065;49.790;9.620;2022-11-20T08:51:29;7.60;61.70
4103;DHT22;2065;49.790;9.620;2022-11-20T08:53:57;7.60;61.70
4103;DHT22;2065;49.790;9.620;2022-11-20T08:56:24;7.50;60.50
4103;DHT22;2065;49.790;9.620;2022-11-20T08:58:52;7.70;61.00
4103;DHT22;2065;49.790;9.620;2022-11-20T09:01:19;7.70;61.10
4103;DHT22;2065;49.790;9.620;2022-11-20T09:03:46;7.40;62.40
4103;DHT22;2065;49.790;9.620;2022-11-20T09:06:14;7.50;62.40
4103;DHT22;2065;49.790;9.620;2022-11-20T09:08:41;7.50;62.20
4103;DHT22;2065;49.790;9.620;2022-11-20T09:11:10;7.50;61.90
4103;DHT22;2065;49.790;9.620;2022-11-20T09:13:37;7.70;61.90
4103;DHT22;2065;49.790;9.620;2022-11-20T09:16:06;7.70;61.50
4103;DHT22;2065;49.790;9.620;2022-11-20T09:18:34;7.70;61.50
4103;DHT22;2065;49.790;9.620;2022-11-20T09:21:04;7.70;61.80
4103;DHT22;2065;49.790;9.620;2022-11-20T09:23:34;7.80;61.00
4103;DHT22;2065;49.790;9.620;2022-11-20T09:26:02;7.50;61.50
4103;DHT22;2065;49.790;9.620;2022-11-20T09:28:31;7.60;62.00
4103;DHT22;2065;49.790;9.620;2022-11-20T09:30:59;7.40;61.90
4103;DHT22;2065;49.790;9.620;2022-11-20T09:33:26;7.20;62.80
4103;DHT22;2065;49.790;9.620;2022-11-20T09:35:53;7.40;63.20
4103;DHT22;2065;49.790;9.620;2022-11-20T09:38:20;7.50;62.40
4103;DHT22;2065;49.790;9.620;2022-11-20T09:40:52;7.40;62.10
4103;DHT22;2065;49.790;9.620;2022-11-20T09:43:26;7.50;62.60
4103;DHT22;2065;49.790;9.620;2022-11-20T09:46:04;7.70;61.90
4103;DHT22;2065;49.790;9.620;2022-11-20T09:48:44;7.80;62.30
4103;DHT22;2065;49.790;9.620;2022-11-20T09:51:23;7.80;61.40
4103;DHT22;2065;49.790;9.620;2022-11-20T09:54:05;7.80;62.30
4103;DHT22;2065;49.790;9.620;2022-11-20T09:56:34;8.00;61.80
4103;DHT22;2065;49.790;9.620;2022-11-20T09:59:05;8.10;61.80
4103;DHT22;2065;49.790;9.620;2022-11-20T10:01:36;8.40;60.90
4103;DHT22;2065;49.790;9.620;2022-11-20T10:04:12;8.40;60.00
4103;DHT22;2065;49.790;9.620;2022-11-20T10:06:44;8.40;59.60
4103;DHT22;2065;49.790;9.620;2022-11-20T10:09:21;8.10;60.40
4103;DHT22;2065;49.790;9.620;2022-11-20T10:11:58;7.90;60.90
4103;DHT22;2065;49.790;9.620;2022-11-20T10:14:35;8.00;61.10
4103;DHT22;2065;49.790;9.620;2022-11-20T10:17:13;8.00;61.50
4103;DHT22;2065;49.790;9.620;2022-11-20T10:19:59;8.30;61.50
4103;DHT22;2065;49.790;9.620;2022-11-20T10:22:41;8.60;60.40
4103;DHT22;2065;49.790;9.620;2022-11-20T10:25:14;8.40;60.30
4103;DHT22;2065;49.790;9.620;2022-11-20T10:27:56;8.50;60.40
4103;DHT22;2065;49.790;9.620;2022-11-20T10:30:27;8.60;59.20
4103;DHT22;2065;49.790;9.620;2022-11-20T10:33:02;8.30;60.50
4103;DHT22;2065;49.790;9.620;2022-11-20T10:35:35;8.30;61.40
4103;DHT22;2065;49.790;9.620;2022-11-20T10:38:08;8.40;61.60
4103;DHT22;2065;49.790;9.620;2022-11-20T10:40:39;8.60;59.80
4103;DHT22;2065;49.790;9.620;2022-11-20T10:43:12;8.50;59.70
4103;DHT22;2065;49.790;9.620;2022-11-20T10:45:52;8.50;60.70
4103;DHT22;2065;49.790;9.620;2022-11-20T10:48:23;8.40;61.20
4103;DHT22;2065;49.790;9.620;2022-11-20T10:51:08;8.40;61.30
4103;DHT22;2065;49.790;9.620;2022-11-20T10:56:38;8.80;60.60
4103;DHT22;2065;49.790;9.620;2022-11-20T10:59:35;8.40;60.80
4103;DHT22;2065;49.790;9.620;2022-11-20T11:02:18;7.80;62.40
4103;DHT22;2065;49.790;9.620;2022-11-20T11:04:49;7.60;64.00
4103;DHT22;2065;49.790;9.620;2022-11-20T11:07:19;7.50;65.60
4103;DHT22;2065;49.790;9.620;2022-11-20T11:09:49;7.80;64.90
4103;DHT22;2065;49.790;9.620;2022-11-20T11:12:17;8.00;63.80
4103;DHT22;2065;49.790;9.620;2022-11-20T11:14:49;7.90;63.80
4103;DHT22;2065;49.790;9.620;2022-11-20T11:17:27;8.00;64.20
4103;DHT22;2065;49.790;9.620;2022-11-20T11:20:18;8.20;63.80
4103;DHT22;2065;49.790;9.620;2022-11-20T11:22:47;8.40;63.60
4103;DHT22;2065;49.790;9.620;2022-11-20T11:25:27;8.40;63.90
4103;DHT22;2065;49.790;9.620;2022-11-20T11:27:56;8.50;63.40
4103;DHT22;2065;49.790;9.620;2022-11-20T11:30:24;8.40;63.20
4103;DHT22;2065;49.790;9.620;2022-11-20T11:33:03;8.60;63.40
4103;DHT22;2065;49.790;9.620;2022-11-20T11:35:32;8.70;62.80
4103;DHT22;2065;49.790;9.620;2022-11-20T11:38:05;8.80;62.30
4103;DHT22;2065;49.790;9.620;2022-11-20T11:40:34;8.90;61.50
4103;DHT22;2065;49.790;9.620;2022-11-20T11:43:04;8.90;61.20
4103;DHT22;2065;49.790;9.620;2022-11-20T11:45:53;8.80;61.70
4103;DHT22;2065;49.790;9.620;2022-11-20T11:48:20;8.80;61.20
4103;DHT22;2065;49.790;9.620;2022-11-20T11:50:50;8.90;60.90
4103;DHT22;2065;49.790;9.620;2022-11-20T11:53:19;8.90;60.50
4103;DHT22;2065;49.790;9.620;2022-11-20T11:55:51;9.00;60.80
4103;DHT22;2065;49.790;9.620;2022-11-20T11:58:34;9.10;61.40
4103;DHT22;2065;49.790;9.620;2022-11-20T12:01:13;9.20;61.20
4103;DHT22;2065;49.790;9.620;2022-11-20T12:03:52;9.00;61.60
4103;DHT22;2065;49.790;9.620;2022-11-20T12:06:22;8.60;62.00
4103;DHT22;2065;49.790;9.620;2022-11-20T12:08:53;8.30;63.60
4103;DHT22;2065;49.790;9.620;2022-11-20T12:11:29;8.30;63.90
4103;DHT22;2065;49.790;9.620;2022-11-20T12:14:00;8.30;63.80
4103;DHT22;2065;49.790;9.620;2022-11-20T12:16:34;8.50;64.00
4103;DHT22;2065;49.790;9.620;2022-11-20T12:19:02;8.80;63.60
4103;DHT22;2065;49.790;9.620;2022-11-20T12:21:39;8.90;63.20
4103;DHT22;2065;49.790;9.620;2022-11-20T12:24:29;9.00;62.60
4103;DHT22;2065;49.790;9.620;2022-11-20T12:27:08;9.20;62.40
4103;DHT22;2065;49.790;9.620;2022-11-20T12:29:47;9.10;62.70
4103;DHT22;2065;49.790;9.620;2022-11-20T12:32:39;9.20;62.50
4103;DHT22;2065;49.790;9.620;2022-11-20T12:35:17;9.10;62.20
4103;DHT22;2065;49.790;9.620;2022-11-20T12:37:57;8.60;64.20
4103;DHT22;2065;49.790;9.620;2022-11-20T12:40:33;8.90;64.50
4103;DHT22;2065;49.790;9.620;2022-11-20T12:43:08;8.90;63.50
4103;DHT22;2065;49.790;9.620;2022-11-20T12:46:18;9.00;64.30
4103;DHT22;2065;49.790;9.620;2022-11-20T12:49:06;9.20;63.30
4103;DHT22;2065;49.790;9.620;2022-11-20T12:52:02;9.40;63.40
4103;DHT22;2065;49.790;9.620;2022-11-20T12:54:56;9.40;63.50
4103;DHT22;2065;49.790;9.620;2022-11-20T12:57:32;9.10;63.40
4103;DHT22;2065;49.790;9.620;2022-11-20T13:00:09;8.90;64.30
4103;DHT22;2065;49.790;9.620;2022-11-20T13:02:56;8.70;65.40
4103;DHT22;2065;49.790;9.620;2022-11-20T13:05:32;8.60;65.00
4103;DHT22;2065;49.790;9.620;2022-11-20T13:08:04;9.00;65.50
4103;DHT22;2065;49.790;9.620;2022-11-20T13:10:39;9.30;64.50
4103;DHT22;2065;49.790;9.620;2022-11-20T13:13:14;9.50;63.60
4103;DHT22;2065;49.790;9.620;2022-11-20T13:15:50;9.50;62.80
4103;DHT22;2065;49.790;9.620;2022-11-20T13:18:19;9.60;62.50
4103;DHT22;2065;49.790;9.620;2022-11-20T13:20:46;9.40;63.20
4103;DHT22;2065;49.790;9.620;2022-11-20T13:23:25;9.30;64.30
4103;DHT22;2065;49.790;9.620;2022-11-20T13:26:05;9.40;64.40
4103;DHT22;2065;49.790;9.620;2022-11-20T13:28:32;9.50;64.20
4103;DHT22;2065;49.790;9.620;2022-11-20T13:31:00;9.50;63.40
4103;DHT22;2065;49.790;9.620;2022-11-20T13:33:29;9.10;64.70
4103;DHT22;2065;49.790;9.620;2022-11-20T13:35:59;9.30;64.90
4103;DHT22;2065;49.790;9.620;2022-11-20T13:38:27;9.30;64.30
4103;DHT22;2065;49.790;9.620;2022-11-20T13:40:57;9.40;65.40
4103;DHT22;2065;49.790;9.620;2022-11-20T13:43:35;9.60;64.10
4103;DHT22;2065;49.790;9.620;2022-11-20T13:46:05;9.60;64.10
4103;DHT22;2065;49.790;9.620;2022-11-20T13:48:33;9.80;63.60
4103;DHT22;2065;49.790;9.620;2022-11-20T13:51:10;9.70;62.70
4103;DHT22;2065;49.790;9.620;2022-11-20T13:56:42;9.30;65.20
4103;DHT22;2065;49.790;9.620;2022-11-20T13:59:26;9.60;64.70
4103;DHT22;2065;49.790;9.620;2022-11-20T14:01:55;9.60;64.50
4103;DHT22;2065;49.790;9.620;2022-11-20T14:04:27;9.30;64.30
4103;DHT22;2065;49.790;9.620;2022-11-20T14:06:56;9.20;65.30
4103;DHT22;2065;49.790;9.620;2022-11-20T14:09:28;9.10;65.40
4103;DHT22;2065;49.790;9.620;2022-11-20T14:11:55;9.30;65.30
4103;DHT22;2065;49.790;9.620;2022-11-20T14:14:25;9.60;65.00
4103;DHT22;2065;49.790;9.620;2022-11-20T14:17:04;9.40;63.90
4103;DHT22;2065;49.790;9.620;2022-11-20T14:19:32;9.30;65.30
4103;DHT22;2065;49.790;9.620;2022-11-20T14:22:15;9.30;65.60
4103;DHT22;2065;49.790;9.620;2022-11-20T14:24:44;9.50;64.90
4103;DHT22;2065;49.790;9.620;2022-11-20T14:27:13;9.70;64.30
4103;DHT22;2065;49.790;9.620;2022-11-20T14:29:44;9.80;64.50
4103;DHT22;2065;49.790;9.620;2022-11-20T14:32:15;10.00;62.90
4103;DHT22;2065;49.790;9.620;2022-11-20T14:34:45;10.10;62.40
4103;DHT22;2065;49.790;9.620;2022-11-20T14:37:17;9.80;64.40
4103;DHT22;2065;49.790;9.620;2022-11-20T14:39:49;9.80;64.70
4103;DHT22;2065;49.790;9.620;2022-11-20T14:42:19;9.80;64.80
4103;DHT22;2065;49.790;9.620;2022-11-20T14:44:48;10.10;62.70
4103;DHT22;2065;49.790;9.620;2022-11-20T14:47:19;10.10;62.90
4103;DHT22;2065;49.790;9.620;2022-11-20T14:49:48;9.80;63.40
4103;DHT22;2065;49.790;9.620;2022-11-20T14:52:18;9.80;64.20
4103;DHT22;2065;49.790;9.620;2022-11-20T14:54:46;10.00;62.30
4103;DHT22;2065;49.790;9.620;2022-11-20T14:57:35;10.20;62.00
4103;DHT22;2065;49.790;9.620;2022-11-20T15:00:18;10.20;61.40
4103;DHT22;2065;49.790;9.620;2022-11-20T15:02:47;10.30;61.20
4103;DHT22;2065;49.790;9.620;2022-11-20T15:05:15;10.30;61.50
4103;DHT22;2065;49.790;9.620;2022-11-20T15:07:44;10.10;61.40
4103;DHT22;2065;49.790;9.620;2022-11-20T15:10:20;10.10;62.30
4103;DHT22;2065;49.790;9.620;2022-11-20T15:12:49;10.00;61.50
4103;DHT22;2065;49.790;9.620;2022-11-20T15:15:21;10.10;62.10
4103;DHT22;2065;49.790;9.620;2022-11-20T15:17:50;10.20;61.40
4103;DHT22;2065;49.790;9.620;2022-11-20T15:20:17;10.10;61.20
4103;DHT22;2065;49.790;9.620;2022-11-20T15:22:44;10.20;61.50
4103;DHT22;2065;49.790;9.620;2022-11-20T15:25:13;10.30;61.20
4103;DHT22;2065;49.790;9.620;2022-11-20T15:27:41;10.40;60.90
4103;DHT22;2065;49.790;9.620;2022-11-20T15:30:15;10.40;60.70
4103;DHT22;2065;49.790;9.620;2022-11-20T15:32:45;10.50;60.70
4103;DHT22;2065;49.790;9.620;2022-11-20T15:35:13;10.50;60.60
4103;DHT22;2065;49.790;9.620;2022-11-20T15:37:40;10.50;60.20
4103;DHT22;2065;49.790;9.620;2022-11-20T15:40:08;10.30;60.10
4103;DHT22;2065;49.790;9.620;2022-11-20T15:42:36;10.20;60.20
4103;DHT22;2065;49.790;9.620;2022-11-20T15:45:03;9.80;62.20
4103;DHT22;2065;49.790;9.620;2022-11-20T15:47:34;9.40;64.10
4103;DHT22;2065;49.790;9.620;2022-11-20T15:50:03;9.00;64.40
4103;DHT22;2065;49.790;9.620;2022-11-20T15:52:30;8.80;66.10
4103;DHT22;2065;49.790;9.620;2022-11-20T15:54:58;9.10;65.40
4103;DHT22;2065;49.790;9.620;2022-11-20T15:57:25;9.40;64.60
4103;DHT22;2065;49.790;9.620;2022-11-20T15:59:53;9.60;64.10
4103;DHT22;2065;49.790;9.620;2022-11-20T16:02:20;9.70;63.70
4103;DHT22;2065;49.790;9.620;2022-11-20T16:04:47;9.90;63.40
4103;DHT22;2065;49.790;9.620;2022-11-20T16:07:16;10.00;61.60
4103;DHT22;2065;49.790;9.620;2022-11-20T16:09:43;10.00;61.20
4103;DHT22;2065;49.790;9.620;2022-11-20T16:12:10;10.00;60.90
4103;DHT22;2065;49.790;9.620;2022-11-20T16:14:58;9.80;62.00
4103;DHT22;2065;49.790;9.620;2022-11-20T16:17:42;9.70;62.00
4103;DHT22;2065;49.790;9.620;2022-11-20T16:20:13;9.40;62.40
4103;DHT22;2065;49.790;9.620;2022-11-20T16:22:42;9.10;64.00
4103;DHT22;2065;49.790;9.620;2022-11-20T16:25:09;8.70;65.00
4103;DHT22;2065;49.790;9.620;2022-11-20T16:27:36;9.00;64.90
4103;DHT22;2065;49.790;9.620;2022-11-20T16:30:04;9.30;64.10
4103;DHT22;2065;49.790;9.620;2022-11-20T16:32:31;9.40;63.20
4103;DHT22;2065;49.790;9.620;2022-11-20T16:34:58;9.60;62.80
4103;DHT22;2065;49.790;9.620;2022-11-20T16:37:25;9.70;62.40
4103;DHT22;2065;49.790;9.620;2022-11-20T16:39:54;9.80;62.00
4103;DHT22;2065;49.790;9.620;2022-11-20T16:42:22;9.90;61.70
4103;DHT22;2065;49.790;9.620;2022-11-20T16:44:49;9.90;61.50